Lake City, Colorado
Current Conditions -  °F | °C
As of 11:55 PM on Thursday 18 Dec 2014 (Local Time) from KTEX Reporting Station
Scattered Clouds Scattered Clouds  
Wind Chill: 19°   Ceiling: Unl
Heat Index: 19°   Visibility: 10mi
Dew Point: 13°   Wind: 0mph
Humidity: 77%   Direction: NA
Pressure: 30.17"   Gusts: NA
Location:  38.03°N, 107.32°W
Report Text: KTEX 190655Z AUTO 00000KT 10SM SCT029 M07/M10 A3017 RMK AO2 T10711105
Loading
Personal Weather Stations






























Interactive Weather Map New forecast layout! Learn more

10-Day Weather Forecast

Advertisements
Track Severe Weather on mobile